createdAt,value
2023-03-29T06:29:48.646Z,6.90
2023-03-29T06:32:15.356Z,10.53
2023-03-29T06:34:42.198Z,12.53
2023-03-29T06:37:09.091Z,7.43
2023-03-29T06:39:35.939Z,7.17
2023-03-29T06:42:12.999Z,9.53
2023-03-29T06:44:48.031Z,10.13
2023-03-29T06:47:15.039Z,8.13
2023-03-29T06:49:41.838Z,8.57
2023-03-29T06:52:08.808Z,8.43
2023-03-29T06:54:35.762Z,11.20
2023-03-29T06:57:03.546Z,12.90
2023-03-29T06:59:30.504Z,8.37
2023-03-29T07:01:57.460Z,10.03
2023-03-29T07:04:24.979Z,5.00
2023-03-29T07:07:05.839Z,7.03
2023-03-29T07:09:33.562Z,15.83
2023-03-29T07:12:00.714Z,9.07
2023-03-29T07:14:30.141Z,6.13
2023-03-29T07:17:07.680Z,9.23
2023-03-29T07:19:37.338Z,7.60
2023-03-29T07:22:04.955Z,9.53
2023-03-29T07:24:35.035Z,8.37
2023-03-29T07:27:11.684Z,4.63
2023-03-29T07:35:06.129Z,7.47
2023-03-29T07:37:34.701Z,6.00
2023-03-29T07:40:03.613Z,9.37
2023-03-29T07:42:30.904Z,9.13
2023-03-29T07:44:58.874Z,7.67
2023-03-29T07:47:26.384Z,5.50
2023-03-29T07:49:53.783Z,3.63
2023-03-29T07:52:20.798Z,7.87
2023-03-29T07:54:49.755Z,6.13
2023-03-29T07:57:17.058Z,4.30
2023-03-29T07:59:44.181Z,6.03
2023-03-29T08:02:14.525Z,8.53
2023-03-29T08:04:41.892Z,6.37
2023-03-29T08:07:09.292Z,5.70
2023-03-29T08:09:37.598Z,6.87
2023-03-29T08:12:05.806Z,5.83
2023-03-29T08:14:36.848Z,6.47
2023-03-29T08:17:04.313Z,8.33
2023-03-29T08:19:38.692Z,5.23
2023-03-29T08:22:09.013Z,5.57
2023-03-29T08:24:36.424Z,8.17
2023-03-29T08:27:05.043Z,4.03
2023-03-29T08:29:32.908Z,5.60
2023-03-29T08:32:00.821Z,3.43
2023-03-29T08:34:28.011Z,5.97
2023-03-29T08:36:56.118Z,5.17
2023-03-29T08:39:25.889Z,6.93
2023-03-29T08:41:57.653Z,6.70
2023-03-29T08:44:42.009Z,2.67
2023-03-29T08:47:11.799Z,5.77
2023-03-29T08:49:40.548Z,8.47
2023-03-29T08:52:16.854Z,2.67
2023-03-29T08:54:46.672Z,3.20
2023-03-29T08:57:22.402Z,6.00
2023-03-29T08:59:57.818Z,4.63
2023-03-29T09:02:47.702Z,6.00
2023-03-29T09:05:31.184Z,7.33
2023-03-29T09:07:58.524Z,2.70
2023-03-29T09:10:31.672Z,4.43
2023-03-29T09:13:40.805Z,4.83
2023-03-29T09:16:18.175Z,4.27
2023-03-29T09:18:51.455Z,3.07
2023-03-29T09:21:24.678Z,3.40
2023-03-29T09:24:00.537Z,4.30
2023-03-29T09:26:31.413Z,4.23
2023-03-29T09:29:21.470Z,2.53
2023-03-29T09:32:07.981Z,3.13
2023-03-29T09:34:45.329Z,4.40
2023-03-29T09:37:23.052Z,4.57
2023-03-29T09:39:54.047Z,5.03
2023-03-29T09:42:33.855Z,5.43
2023-03-29T09:45:11.070Z,3.77
2023-03-29T09:48:00.610Z,5.23
2023-03-29T09:50:43.599Z,3.67
2023-03-29T09:53:25.591Z,5.63
2023-03-29T09:55:55.583Z,8.03
2023-03-29T09:58:47.438Z,4.63
2023-03-29T10:01:52.280Z,5.50
2023-03-29T10:04:30.673Z,4.73
2023-03-29T10:07:00.407Z,4.87
2023-03-29T10:09:30.064Z,3.97
2023-03-29T10:12:08.073Z,5.20
2023-03-29T10:15:29.784Z,5.50
2023-03-29T10:18:38.589Z,5.20
2023-03-29T10:21:30.030Z,6.77
2023-03-29T10:24:25.333Z,8.50
2023-03-29T10:27:18.435Z,9.27
2023-03-29T10:29:59.345Z,10.30
2023-03-29T10:32:35.564Z,8.63
2023-03-29T10:35:13.303Z,9.13
2023-03-29T10:37:42.431Z,6.60
2023-03-29T10:40:42.564Z,7.33
2023-03-29T10:43:33.277Z,5.70
2023-03-29T10:46:16.232Z,8.17
2023-03-29T10:48:47.259Z,7.03
2023-03-29T10:51:18.321Z,9.27
2023-03-29T10:53:46.018Z,6.00
2023-03-29T10:56:39.646Z,6.27
2023-03-29T10:59:19.835Z,4.47
2023-03-29T11:02:08.483Z,7.60
2023-03-29T11:05:18.714Z,7.63
2023-03-29T11:07:57.421Z,8.03
2023-03-29T11:10:55.468Z,6.17
2023-03-29T11:13:29.223Z,3.83
2023-03-29T11:16:07.218Z,9.27
2023-03-29T11:18:43.673Z,4.33
2023-03-29T11:21:36.344Z,8.67
2023-03-29T11:24:35.846Z,9.60
2023-03-29T11:27:18.367Z,7.17
2023-03-29T11:30:10.896Z,6.97
2023-03-29T11:32:53.372Z,6.87
2023-03-29T11:35:30.267Z,8.77
2023-03-29T11:38:03.555Z,6.00
2023-03-29T11:41:15.848Z,7.63
2023-03-29T11:43:55.469Z,8.77
2023-03-29T11:46:27.462Z,6.87
2023-03-29T11:49:01.543Z,5.20
2023-03-29T11:52:07.158Z,11.47
2023-03-29T11:55:03.965Z,10.37
2023-03-29T11:57:39.656Z,6.20
2023-03-29T12:00:23.007Z,7.53
2023-03-29T12:03:00.751Z,6.67
2023-03-29T12:05:44.854Z,10.83
2023-03-29T12:08:33.998Z,6.80
2023-03-29T12:11:12.916Z,9.23
2023-03-29T12:13:57.824Z,6.97
2023-03-29T12:16:44.883Z,8.87
2023-03-29T12:19:19.134Z,8.37
2023-03-29T12:21:47.958Z,12.03
2023-03-29T12:24:17.170Z,7.50
2023-03-29T12:27:13.623Z,7.33
2023-03-29T12:29:44.302Z,8.50
2023-03-29T12:32:14.221Z,6.43
2023-03-29T12:35:02.905Z,9.63
2023-03-29T12:37:47.661Z,8.60
2023-03-29T12:40:17.264Z,5.97
2023-03-29T12:42:59.968Z,5.20
2023-03-29T12:45:37.730Z,9.40
2023-03-29T12:48:06.604Z,11.70
2023-03-29T12:50:36.240Z,9.37
2023-03-29T12:53:23.702Z,5.67
2023-03-29T12:56:16.568Z,8.37
2023-03-29T12:58:56.766Z,4.83
2023-03-29T13:01:23.655Z,9.20
2023-03-29T13:03:55.473Z,11.50
2023-03-29T13:06:53.739Z,11.60
2023-03-29T13:09:30.118Z,11.70
2023-03-29T13:12:13.406Z,11.27
2023-03-29T13:14:43.257Z,11.53
2023-03-29T13:17:22.134Z,10.43
2023-03-29T13:20:08.093Z,14.00
2023-03-29T13:22:40.749Z,20.00
2023-03-29T13:25:38.941Z,13.43
2023-03-29T13:28:22.594Z,10.37
2023-03-29T13:31:21.833Z,5.40
2023-03-29T13:33:54.595Z,13.23
2023-03-29T13:36:46.913Z,7.00
2023-03-29T13:39:19.752Z,8.40
2023-03-29T13:41:52.977Z,8.63
2023-03-29T13:44:22.736Z,13.30
2023-03-29T13:46:50.834Z,9.53
2023-03-29T13:49:27.293Z,10.60
2023-03-29T13:51:54.016Z,8.87
2023-03-29T13:54:27.490Z,8.33
2023-03-29T13:57:04.331Z,10.57
2023-03-29T13:59:52.673Z,10.47
2023-03-29T14:02:50.348Z,18.47
2023-03-29T14:05:28.384Z,12.47
2023-03-29T14:07:55.976Z,16.30
2023-03-29T14:10:37.868Z,16.27
2023-03-29T14:13:05.401Z,7.73
2023-03-29T14:15:45.057Z,13.67
2023-03-29T14:18:17.732Z,12.67
2023-03-29T14:20:46.714Z,15.93
2023-03-29T14:23:27.306Z,10.83
2023-03-29T14:25:54.183Z,12.67
2023-03-29T14:28:26.305Z,13.27
2023-03-29T14:30:53.803Z,11.57
2023-03-29T14:33:43.711Z,9.37
2023-03-29T14:36:13.304Z,12.80
2023-03-29T14:38:40.467Z,10.57
2023-03-29T14:41:07.644Z,10.13
2023-03-29T14:43:34.639Z,8.50
2023-03-29T14:46:03.353Z,6.73
2023-03-29T14:48:33.296Z,8.27
2023-03-29T14:51:01.033Z,9.57
2023-03-29T14:53:32.480Z,10.20
2023-03-29T14:55:59.734Z,7.17
2023-03-29T14:58:32.888Z,7.37
2023-03-29T15:01:14.398Z,10.37
2023-03-29T15:03:49.893Z,12.10
2023-03-29T15:06:17.656Z,11.27
2023-03-29T15:09:10.614Z,9.37
2023-03-29T15:12:08.115Z,10.20
2023-03-29T15:14:37.187Z,11.63
2023-03-29T15:17:07.270Z,11.77
2023-03-29T15:19:34.510Z,8.67
2023-03-29T15:22:10.300Z,7.27
2023-03-29T15:24:45.030Z,11.57
2023-03-29T15:27:18.053Z,8.07
2023-03-29T15:29:47.870Z,8.17
2023-03-29T15:32:25.988Z,12.97
2023-03-29T15:35:05.566Z,10.20
2023-03-29T15:37:32.889Z,13.43
2023-03-29T15:40:00.018Z,14.63
2023-03-29T15:42:26.959Z,13.87
2023-03-29T15:44:55.076Z,19.27
2023-03-29T15:47:22.621Z,17.37
2023-03-29T15:49:50.310Z,8.97
2023-03-29T15:52:17.103Z,10.07
2023-03-29T15:54:44.122Z,16.47
2023-03-29T15:57:14.314Z,15.63
2023-03-29T15:59:56.101Z,13.27
2023-03-29T16:02:24.480Z,14.10
2023-03-29T16:04:51.664Z,15.80
2023-03-29T16:07:19.224Z,13.57
2023-03-29T16:09:49.649Z,12.23
2023-03-29T16:12:16.780Z,10.13
2023-03-29T16:14:43.610Z,10.60
2023-03-29T16:17:10.589Z,11.83
2023-03-29T16:19:37.815Z,14.00
2023-03-29T16:22:07.689Z,11.03
2023-03-29T16:24:35.731Z,11.63
2023-03-29T16:27:03.080Z,10.67
2023-03-29T16:29:30.808Z,15.27
2023-03-29T16:31:57.944Z,10.33
2023-03-29T16:34:25.160Z,10.83
2023-03-29T16:36:53.217Z,7.40
2023-03-29T16:39:20.264Z,11.70
2023-03-29T16:41:49.090Z,11.23
2023-03-29T16:44:19.034Z,15.27
2023-03-29T16:46:47.913Z,14.13
2023-03-29T16:49:18.394Z,16.87
2023-03-29T16:51:48.456Z,16.97
2023-03-29T16:54:16.039Z,18.67
2023-03-29T16:56:43.206Z,16.60
2023-03-29T16:59:10.128Z,13.20
2023-03-29T17:01:37.455Z,15.73
2023-03-29T17:04:04.995Z,17.13
2023-03-29T17:06:32.916Z,23.47
2023-03-29T17:09:00.803Z,14.07
2023-03-29T17:11:28.579Z,14.27
2023-03-29T17:13:56.060Z,16.93
2023-03-29T17:16:23.385Z,19.73
2023-03-29T17:18:50.344Z,15.57
2023-03-29T17:21:17.303Z,15.60
2023-03-29T17:23:44.148Z,22.67
2023-03-29T17:26:12.030Z,18.63
2023-03-29T17:28:39.036Z,20.13
2023-03-29T17:31:07.638Z,14.37
2023-03-29T17:33:35.202Z,20.53
2023-03-29T17:36:02.707Z,24.33
2023-03-29T17:38:30.791Z,20.80
2023-03-29T17:40:57.711Z,21.10
2023-03-29T17:43:24.537Z,21.80
2023-03-29T17:45:52.761Z,20.10
2023-03-29T17:48:19.827Z,17.43
2023-03-29T17:50:47.162Z,17.93
2023-03-29T17:53:14.066Z,21.17
2023-03-29T17:55:41.304Z,20.87
2023-03-29T17:58:08.643Z,14.93
2023-03-29T18:00:35.874Z,19.07
2023-03-29T18:03:02.863Z,17.27
2023-03-29T18:05:29.762Z,16.97
2023-03-29T18:07:56.727Z,16.80
2023-03-29T18:10:23.672Z,16.27
2023-03-29T18:12:50.741Z,15.50
2023-03-29T18:15:18.224Z,21.53
2023-03-29T18:17:45.069Z,18.40
2023-03-29T18:20:12.936Z,18.57
2023-03-29T18:22:41.646Z,14.43
2023-03-29T18:25:09.784Z,13.67
2023-03-29T18:27:38.161Z,19.97
2023-03-29T18:30:06.665Z,13.07
2023-03-29T18:32:33.696Z,19.57
2023-03-29T18:35:02.508Z,21.50
2023-03-29T18:37:29.535Z,26.77
2023-03-29T18:39:56.996Z,16.80
2023-03-29T18:42:23.871Z,16.73
2023-03-29T18:44:51.648Z,19.17
2023-03-29T18:47:18.625Z,17.17
2023-03-29T18:49:45.614Z,23.70
2023-03-29T18:52:12.677Z,18.67
2023-03-29T18:54:39.550Z,20.00
2023-03-29T18:57:06.561Z,18.20
2023-03-29T18:59:36.045Z,13.93
2023-03-29T19:02:03.651Z,13.67
2023-03-29T19:04:30.698Z,12.47
2023-03-29T19:06:57.647Z,14.27
2023-03-29T19:09:24.464Z,13.80
2023-03-29T19:11:51.248Z,11.07
2023-03-29T19:14:23.661Z,14.93
2023-03-29T19:16:51.558Z,10.33
2023-03-29T19:19:19.359Z,13.67
2023-03-29T19:21:49.669Z,12.13
2023-03-29T19:24:16.882Z,10.60
2023-03-29T19:26:44.695Z,15.37
2023-03-29T19:29:11.926Z,10.20
2023-03-29T19:31:39.018Z,10.87
2023-03-29T19:34:07.093Z,13.17
2023-03-29T19:36:34.036Z,10.37
2023-03-29T19:39:01.200Z,13.83
2023-03-29T19:41:28.467Z,14.50
2023-03-29T19:43:55.589Z,13.67
2023-03-29T19:46:23.057Z,11.73
2023-03-29T19:48:51.850Z,13.47
2023-03-29T19:51:19.650Z,15.00
2023-03-29T19:53:47.453Z,11.80
2023-03-29T19:56:15.065Z,16.83
